Archival Weather

Chicago O'Hare International

Chicago, Illinois (KORD)

Report from: Friday, March 30, 2012 8:51 PM CDT
Current time: Friday, June 21, 2024 6:05 PM CDT

Current weather – Weather history – Daily summaries
Weather forecast

Temperature5.0°C (41.0°F)
Wind chill1.3°C (34.3°F)
Dew point2.2°C (36.0°F)
Winds 10 kts (5.1 m/s, 11.5 mph) North-Northeast (30°)
Wind gusts 18 kts (9.3 m/s, 20.7 mph)
Visibility10 mi. (16.1 km)
Clouds Ceiling: Overcast 1,000 ft. (305 m)
Altimeter29.89 in.Hg (1012 mB)
Relative humidity82 %
Density altitude-1,080 ft. (-329 m)
Sea-level pressure101.3 kPa (1013 mB, 29.90 in.Hg)
Remarks System requires maintenance
Automated weather observing station with precipitation discriminator
Flight conditions Marginal Visual Meteorological Conditions
Raw data2012-03-31 01:51 KORD 310151Z 03010G18KT 10SM OVC010 05/02 A2989 RMK AO2 SLP126 T00500022 $
An error has occurred. This application may no longer respond until reloaded. Reload 🗙